Latest Weather Observations for Wilcannia Airport

IDN60801

Issued at 4:05 pm EDT Monday 24 November 2014 (issued every 30 minutes, with the page automatically refreshed every 10 minutes)

About weather observations | Map of weather stations | Latest weather observations for NSW | Other Formats
Station Details ID: 046012 Name: WILCANNIA AERODROME AWS Lat: -31.52 Lon: 143.38 Height: 94.3 m
Data from the previous 72 hours. | See also: Recent months for locations in New South Wales
Date/Time
EDT
Temp
°C
App
Temp
°C
Dew
Point
Rel
Hum
%
Delta-T
°C
Wind Press
QNH
hPa
Press
MSL
hPa
Rain
since 9 am
mm
Dir
 
Spd
km/h
Gust
km/h
Spd
kts
Gust
kts
24/04:00pm 31.7 27.2 14.8 36 10.4 NNW 32 44 17 24 1008.1 1007.7 0.2
24/03:30pm 31.8 28.5 16.1 38 9.9 NNW 28 37 15 20 1008.3 1007.9 0.2
24/03:00pm 31.0 29.6 17.0 43 8.9 N 20 32 11 17 1008.9 1008.5 0.2
24/02:30pm 30.8 28.7 17.1 43 8.7 N 24 35 13 19 1009.6 1009.2 0.2
24/02:00pm 30.9 28.8 17.2 43 8.7 N 24 32 13 17 1010.0 1009.6 0.2
24/01:30pm 29.5 29.1 18.0 50 7.4 N 17 32 9 17 1010.6 1010.2 0.2
24/01:00pm 28.9 29.0 18.4 53 6.8 NE 15 24 8 13 1010.9 1010.5 0.2
24/12:30pm 28.2 28.2 18.0 54 6.5 ENE 15 20 8 11 1010.7 1010.3 0.2
24/12:00pm 26.7 27.2 18.3 60 5.4 ENE 13 19 7 10 1011.1 1010.7 0.0
24/11:30am 25.7 26.3 18.6 65 4.5 E 13 17 7 9 1011.2 1010.8 0.0
24/11:00am 25.5 26.5 17.7 62 4.9 ESE 9 15 5 8 1011.5 1011.1 0.0
24/10:30am 24.5 25.5 18.7 70 3.7 S 11 17 6 9 1011.9 1011.5 0.0
24/10:00am 23.3 24.5 18.2 73 3.2 S 9 15 5 8 1011.6 1011.2 0.0
24/09:30am 22.3 23.6 19.3 83 1.9 S 11 15 6 8 1011.5 1011.1 0.0
24/09:00am 21.4 22.6 19.1 87 1.5 SW 11 15 6 8 1012.4 1012.0 2.0
24/08:30am 21.7 23.1 18.7 83 1.9 SSW 9 11 5 6 1012.2 1011.8 1.8
24/08:00am 20.8 21.8 18.6 87 1.4 ESE 11 17 6 9 1012.0 1011.6 1.8
24/07:30am 20.4 20.3 17.8 85 1.6 SSE 15 19 8 10 1011.2 1010.8 1.6
24/07:00am 21.4 20.2 17.0 76 2.7 WSW 19 22 10 12 1012.6 1012.2 0.8
24/06:30am 22.8 23.8 16.8 69 3.7 S 7 11 4 6 1011.6 1011.2 0.4
24/06:00am 22.3 21.7 15.6 66 4.0 ESE 13 15 7 8 1010.9 1010.5 0.4
24/05:30am 22.2 20.5 15.8 67 3.9 ESE 19 28 10 15 1010.4 1010.0 0.4
24/05:00am 22.2 19.6 16.0 68 3.8 E 24 33 13 18 1010.6 1010.2 0.4
24/04:30am 23.5 21.6 15.8 62 4.7 E 20 26 11 14 1011.0 1010.6 0.2
24/04:00am 25.0 24.4 16.7 60 5.1 ENE 15 19 8 10 1011.1 1010.7 0.0
24/03:30am 27.2 27.9 13.5 42 8.1 S 2 13 1 7 1011.8 1011.4 0.0
24/03:00am 28.0 26.3 11.1 35 9.7 NW 11 13 6 7 1011.8 1011.4 0.0
24/02:30am 28.5 27.3 10.2 32 10.3 SW 7 11 4 6 1011.1 1010.7 0.0
24/02:00am 29.0 26.7 10.6 32 10.5 WSW 13 19 7 10 1011.2 1010.8 0.0
24/01:30am 29.6 27.6 10.2 30 11.0 SSW 11 15 6 8 1011.4 1011.0 0.0
24/01:00am 30.1 28.2 10.6 30 11.2 SSW 11 15 6 8 1010.9 1010.5 0.0
24/12:30am 30.6 28.2 11.5 30 11.1 SSE 15 20 8 11 1010.7 1010.3 0.0
24/12:00am 31.0 27.8 11.4 30 11.4 SSE 19 26 10 14 1010.7 1010.3 0.0
 
Date/Time
EDT
Temp
°C
App
Temp
°C
Dew
Point
Rel
Hum
%
Delta-T
°C
Wind Press
QNH
hPa
Press
MSL
hPa
Rain
since 9 am
mm
Dir
 
Spd
km/h
Gust
km/h
Spd
kts
Gust
kts
23/11:30pm 31.5 28.5 11.8 30 11.6 SSE 19 26 10 14 1010.6 1010.2 0.0
23/11:00pm 31.7 28.1 12.0 30 11.6 SE 22 30 12 16 1010.6 1010.2 0.0
23/10:30pm 31.7 28.6 11.5 29 11.8 S 19 30 10 16 1010.8 1010.4 0.0
23/10:00pm 32.2 27.9 10.8 27 12.4 S 24 32 13 17 1010.2 1009.8 0.0
23/09:30pm 32.4 28.8 10.4 26 12.7 S 20 26 11 14 1011.1 1010.7 0.0
23/09:00pm 33.1 30.4 10.4 25 13.2 SSE 15 28 8 15 1011.5 1011.1 0.0
23/08:30pm 33.4 30.6 10.1 24 13.4 SSE 15 20 8 11 1010.7 1010.3 0.0
23/08:00pm 33.6 29.9 10.2 24 13.6 S 20 28 11 15 1010.1 1009.7 0.0
23/07:30pm 34.1 29.6 10.0 23 13.9 S 24 32 13 17 1009.7 1009.3 0.0
23/07:00pm 34.4 30.0 10.3 23 14.0 S 24 35 13 19 1008.8 1008.4 0.0
23/06:30pm 35.4 30.8 9.7 21 14.9 S 24 33 13 18 1008.3 1007.9 0.0
23/06:00pm 36.0 30.2 9.5 20 15.4 SSW 30 39 16 21 1008.5 1008.1 0.0
23/05:30pm 38.1 31.8 8.8 17 16.9 SSW 32 43 17 23 1008.4 1008.0 0.0
23/05:00pm 38.5 33.4 9.1 17 17.1 SSW 26 39 14 21 1008.5 1008.1 0.0
23/04:30pm 37.7 32.7 10.9 20 15.9 S 28 35 15 19 1008.7 1008.3 0.0
23/04:00pm 37.8 34.3 11.0 20 16.0 S 20 30 11 16 1008.7 1008.3 0.0
23/03:30pm 37.8 34.5 11.7 21 15.7 SSE 20 24 11 13 1008.8 1008.4 0.0
23/03:00pm 36.9 32.5 13.0 24 14.6 S 28 43 15 23 1009.4 1009.0 0.0
23/02:30pm 36.3 31.0 12.5 24 14.4 SSW 32 43 17 23 1010.0 1009.6 0.0
23/02:00pm 35.7 31.0 12.0 24 14.2 SW 28 39 15 21 1010.4 1010.0 0.0
23/01:30pm 35.5 30.9 11.2 23 14.4 SW 26 33 14 18 1010.5 1010.1 0.0
23/01:00pm 36.8 32.9 10.9 21 15.4 SW 22 32 12 17 1010.5 1010.1 0.0
23/12:30pm 35.9 31.8 11.5 23 14.5 SW 24 35 13 19 1010.8 1010.4 0.0
23/12:00pm 34.2 30.8 11.4 25 13.5 SW 20 32 11 17 1010.9 1010.5 0.0
23/11:30am 34.4 29.6 11.5 25 13.6 SW 28 35 15 19 1010.8 1010.4 0.0
23/11:00am 33.5 30.7 11.4 26 13.0 SW 17 28 9 15 1010.4 1010.0 0.0
23/10:30am 32.2 28.7 10.8 27 12.4 WSW 20 33 11 18 1010.4 1010.0 0.0
23/10:00am 31.6 28.8 11.4 29 11.8 SW 17 26 9 14 1010.1 1009.7 0.0
23/09:30am 29.9 25.9 10.5 30 11.1 WSW 22 28 12 15 1010.0 1009.6 0.0
23/09:00am 29.0 24.7 10.6 32 10.5 WSW 24 33 13 18 1010.0 1009.6 0.0
23/08:30am 27.0 23.2 9.8 34 9.6 WSW 20 28 11 15 1009.7 1009.3 0.0
23/08:00am 27.9 24.1 9.7 32 10.2 WSW 20 26 11 14 1009.2 1008.8 0.0
23/07:30am 27.7 24.0 10.0 33 9.9 WSW 20 28 11 15 1008.8 1008.4 0.0
23/07:00am 27.8 24.4 9.1 31 10.4 WSW 17 20 9 11 1008.3 1007.9 0.0
23/06:30am 27.7 25.3 8.6 30 10.5 WNW 11 15 6 8 1007.6 1007.2 0.0
23/06:00am 27.0 25.5 8.4 31 10.1 SE 6 11 3 6 1007.1 1006.7 0.0
23/05:30am 28.5 26.8 8.2 28 11.1 N 7 11 4 6 1006.5 1006.1 0.0
23/05:00am 29.5 26.3 8.5 27 11.6 N 15 17 8 9 1006.0 1005.6 0.0
23/04:30am 29.3 26.2 8.9 28 11.3 N 15 17 8 9 1005.9 1005.5 0.0
23/04:00am 29.5 26.7 8.5 27 11.6 NW 13 17 7 9 1006.0 1005.6 0.0
23/03:30am 31.0 28.2 8.7 25 12.4 N 13 17 7 9 1005.8 1005.4 0.0
23/03:00am 31.0 28.2 8.7 25 12.5 N 13 17 7 9 1006.2 1005.8 0.0
23/02:30am 32.2 28.8 9.1 24 13.1 NW 17 19 9 10 1006.8 1006.4 0.0
23/02:00am 32.2 26.7 9.1 24 13.1 W 28 35 15 19 1007.3 1006.9 0.0
23/01:30am 33.2 28.9 9.3 23 13.6 N 22 32 12 17 1006.4 1006.0 0.0
23/01:00am 33.1 29.0 8.5 22 13.9 N 20 30 11 16 1006.4 1006.0 0.0
23/12:30am 32.7 29.2 8.9 23 13.4 N 17 24 9 13 1006.4 1006.0 0.0
23/12:00am 33.0 29.1 8.5 22 13.8 N 19 24 10 13 1006.5 1006.1 0.0
 
Date/Time
EDT
Temp
°C
App
Temp
°C
Dew
Point
Rel
Hum
%
Delta-T
°C
Wind Press
QNH
hPa
Press
MSL
hPa
Rain
since 9 am
mm
Dir
 
Spd
km/h
Gust
km/h
Spd
kts
Gust
kts
22/11:30pm 32.4 29.6 8.6 23 13.4 N 13 17 7 9 1006.7 1006.3 0.0
22/11:00pm 32.7 29.4 8.2 22 13.7 NE 15 19 8 10 1006.9 1006.5 0.0
22/10:30pm 33.6 29.4 8.3 21 14.2 NE 20 26 11 14 1006.6 1006.2 0.0
22/10:00pm 34.2 29.2 8.0 20 14.7 NE 24 33 13 18 1006.5 1006.1 0.0
22/09:30pm 34.6 29.3 8.4 20 14.8 NNE 26 35 14 19 1006.7 1006.3 0.0
22/09:00pm 35.0 30.5 8.7 20 15.0 NNE 22 32 12 17 1006.7 1006.3 0.0
22/08:30pm 35.6 30.9 7.6 18 15.7 N 22 32 12 17 1006.3 1005.9 0.0
22/08:00pm 37.3 32.3 6.3 15 17.2 NE 22 32 12 17 1006.1 1005.7 0.0
22/07:30pm 38.2 32.9 7.0 15 17.6 NE 24 35 13 19 1006.1 1005.7 0.0
22/07:00pm 38.9 33.6 6.6 14 18.2 NNE 24 32 13 17 1005.5 1005.0 0.0
22/06:30pm 39.3 34.0 6.9 14 18.3 NNE 24 32 13 17 1005.7 1005.3 0.0
22/06:00pm 40.1 36.0 6.4 13 19.0 N 17 30 9 16 1005.9 1005.5 0.0
22/05:30pm 40.3 35.7 6.6 13 19.0 NNE 20 32 11 17 1006.1 1005.7 0.0
22/05:00pm 39.4 36.2 7.0 14 18.4 NE 13 20 7 11 1006.5 1006.1 0.0
22/04:30pm 39.5 36.0 7.1 14 18.4 NE 15 26 8 14 1007.0 1006.6 0.0
22/04:00pm 39.4 36.2 7.0 14 18.4 NE 13 22 7 12 1007.6 1007.2 0.0
22/03:30pm 38.7 36.0 7.4 15 17.8 NNE 11 17 6 9 1007.8 1007.4 0.0
22/03:00pm 37.8 35.6 7.7 16 17.1 ESE 9 19 5 10 1008.4 1008.0 0.0
22/02:30pm 36.8 33.4 7.8 17 16.4 S 15 22 8 12 1009.4 1009.0 0.0
22/02:00pm 36.3 32.5 9.0 19 15.7 S 19 24 10 13 1010.1 1009.7 0.0
22/01:30pm 36.1 32.2 9.6 20 15.4 SSW 20 28 11 15 1010.6 1010.2 0.0
22/01:08pm 33.9 28.0 9.2 22 14.1 SW 30 48 16 26 1011.4 1011.0 0.0
22/01:00pm 34.2 26.9 8.8 21 14.4 SW 37 48 20 26 1011.7 1011.3 0.0
22/12:30pm 32.9 24.3 9.0 23 13.5 WSW 44 65 24 35 1012.9 1012.4 0.0
22/12:25pm 33.0 23.9 8.5 22 13.8 WSW 46 65 25 35 1012.7 1012.3 0.0
22/12:18pm 34.3 25.9 8.8 21 14.5 WSW 43 59 23 32 1012.5 1012.1 0.0
22/12:00pm 36.8 32.6 5.9 15 17.0 NW 17 26 9 14 1011.2 1010.8 0.0
22/11:30am 38.7 34.1 6.4 14 18.1 N 20 32 11 17 1010.4 1010.0 0.0
22/11:00am 37.0 32.3 6.1 15 17.1 N 20 32 11 17 1010.7 1010.3 0.0
22/10:30am 35.4 30.3 5.8 16 16.1 N 22 32 12 17 1010.6 1010.2 0.0
22/10:00am 33.8 29.3 6.2 18 15.0 N 19 24 10 13 1010.6 1010.2 0.0
22/09:30am 32.3 27.9 7.2 21 13.8 NNE 20 28 11 15 1010.5 1010.1 0.0
22/09:00am 30.4 25.8 6.3 22 12.9 NE 20 28 11 15 1010.5 1010.1 0.0
22/08:30am 28.4 23.8 6.5 25 11.6 ENE 20 24 11 13 1010.4 1010.0 0.0
22/08:00am 26.6 22.5 6.1 27 10.7 ENE 17 20 9 11 1010.4 1010.0 0.0
22/07:30am 24.8 21.4 6.1 30 9.7 ENE 13 17 7 9 1010.4 1010.0 0.0
22/07:00am 21.6 18.9 7.4 40 7.4 NE 11 11 6 6 1010.2 1009.8 0.0
22/06:30am 17.0 14.2 5.0 45 5.8 NE 9 11 5 6 1010.0 1009.6 0.0
22/06:00am 17.0 15.9 5.0 45 5.8 CALM 0 0 0 0 1009.9 1009.5 0.0
22/05:30am 16.8 15.4 3.5 41 6.2 CALM 0 0 0 0 1009.7 1009.3 0.0
22/05:00am 17.5 16.4 5.1 44 6.0 CALM 0 0 0 0 1009.6 1009.2 0.0
22/04:30am 18.2 17.1 5.1 42 6.3 CALM 0 0 0 0 1009.5 1009.1 0.0
22/04:00am 18.4 16.1 4.9 41 6.5 ESE 6 7 3 4 1009.3 1008.9 0.0
22/03:30am 20.0 17.6 5.3 38 7.2 ESE 7 9 4 5 1009.4 1009.0 0.0
22/03:00am 20.9 17.4 5.3 36 7.7 ESE 13 15 7 8 1009.3 1008.9 0.0
22/02:30am 21.3 18.6 5.6 36 7.8 ESE 9 11 5 6 1009.5 1009.1 0.0
22/02:00am 21.7 18.3 6.0 36 7.9 ESE 13 15 7 8 1009.7 1009.3 0.0
22/01:30am 22.9 19.6 6.2 34 8.5 SE 13 17 7 9 1010.0 1009.6 0.0
22/01:00am 23.6 20.4 6.8 34 8.7 SE 13 15 7 8 1010.5 1010.1 0.0
22/12:30am 22.0 19.4 6.3 36 8.0 SE 9 11 5 6 1010.8 1010.4 0.0
22/12:00am 23.3 21.4 6.6 34 8.6 WSW 6 7 3 4 1010.9 1010.5 0.0
 
Date/Time
EDT
Temp
°C
App
Temp
°C
Dew
Point
Rel
Hum
%
Delta-T
°C
Wind Press
QNH
hPa
Press
MSL
hPa
Rain
since 9 am
mm
Dir
 
Spd
km/h
Gust
km/h
Spd
kts
Gust
kts
21/11:30pm 24.9 22.1 7.1 32 9.4 S 11 13 6 7 1010.9 1010.5 0.0
21/11:00pm 25.9 23.1 7.0 30 10.0 SSE 11 13 6 7 1011.0 1010.6 0.0
21/10:30pm 26.9 23.9 7.9 30 10.2 SSE 13 15 7 8 1011.0 1010.6 0.0
21/10:00pm 27.5 24.5 7.9 29 10.6 SSE 13 15 7 8 1010.6 1010.2 0.0
21/09:30pm 27.2 24.2 7.6 29 10.5 SE 13 15 7 8 1010.4 1010.0 0.0
21/09:00pm 27.9 25.0 6.6 26 11.3 SSE 11 13 6 7 1010.2 1009.8 0.0
21/08:30pm 29.3 26.8 6.7 24 12.1 S 9 11 5 6 1010.1 1009.7 0.0
21/08:00pm 31.4 28.5 6.5 21 13.5 S 11 15 6 8 1009.7 1009.3 0.0
21/07:30pm 32.8 29.2 6.9 20 14.2 S 15 20 8 11 1009.4 1009.0 0.0
21/07:00pm 33.6 28.9 6.0 18 15.0 SW 20 30 11 16 1009.1 1008.7 0.0
21/06:30pm 34.4 29.3 5.8 17 15.5 WSW 22 32 12 17 1009.0 1008.6 0.0
21/06:00pm 34.9 31.4 7.1 18 15.4 SW 15 24 8 13 1009.0 1008.6 0.0
21/05:30pm 35.3 31.1 5.7 16 16.1 W 17 26 9 14 1009.1 1008.7 0.0
21/05:00pm 35.1 31.4 6.4 17 15.8 W 15 28 8 15 1009.2 1008.8 0.0
21/04:30pm 35.4 31.4 9.0 20 15.1 WSW 20 30 11 16 1009.4 1009.0 0.0

Other Formats:

Comma delimited format used in spreadsheet applications
http://www.bom.gov.au/fwo/IDN60801/IDN60801.95695.axf

JavaScript Object Notation format (JSON) in row-major order
http://www.bom.gov.au/fwo/IDN60801/IDN60801.95695.json